Time;durP1;ratioP1;P1;durP2;ratioP2;P2;SDS_P1;SDS_P2;PMS_P1;PMS_P2;Temp;Humidity;BMP_temperature;BMP_pressure;BME280_temperature;BME280_humidity;BME280_pressure;Samples;Min_cycle;Max_cycle;Signal;HPM_P1;HPM_P2
2022/10/20 00:01:15;;;;;;;43.40;26.75;;;;;;;10.83;100.00;99712.23;1799060;79;21595;-71
2022/10/20 00:03:42;;;;;;;42.35;25.90;;;;;;;10.90;100.00;99716.55;1792538;79;21550;-72
2022/10/20 00:06:14;;;;;;;41.48;26.17;;;;;;;10.88;100.00;99722.72;1788831;79;21058;-72
2022/10/20 00:08:43;;;;;;;42.25;26.27;;;;;;;10.96;100.00;99711.05;1788311;79;21026;-72
2022/10/20 00:11:13;;;;;;;40.50;25.60;;;;;;;10.95;100.00;99704.72;1794049;79;21085;-72
2022/10/20 00:13:44;;;;;;;40.55;24.37;;;;;;;10.95;100.00;99709.88;1787677;79;21494;-72
2022/10/20 00:16:13;;;;;;;40.25;25.05;;;;;;;10.90;100.00;99702.39;1797335;79;21043;-72
2022/10/20 00:18:41;;;;;;;38.50;24.05;;;;;;;10.81;100.00;99708.92;1797802;79;21012;-72
2022/10/20 00:21:12;;;;;;;37.60;24.05;;;;;;;10.73;100.00;99702.56;1792482;79;21565;-72
2022/10/20 00:23:40;;;;;;;36.15;23.60;;;;;;;10.65;100.00;99698.31;1784113;79;21045;-72
2022/10/20 00:26:15;;;;;;;37.17;24.27;;;;;;;10.56;100.00;99696.64;1791933;79;21022;-72
2022/10/20 00:28:42;;;;;;;38.48;24.60;;;;;;;10.63;100.00;99702.26;1793800;79;21067;-72
2022/10/20 00:31:10;;;;;;;36.60;24.52;;;;;;;10.65;100.00;99693.16;1798616;79;21522;-72
2022/10/20 00:33:37;;;;;;;37.70;24.55;;;;;;;10.69;100.00;99689.03;1798518;79;21078;-72
2022/10/20 00:36:08;;;;;;;40.30;24.45;;;;;;;10.70;100.00;99691.14;1766988;79;21023;-72
2022/10/20 00:38:36;;;;;;;40.35;24.70;;;;;;;10.69;100.00;99695.47;1755539;80;21065;-72
2022/10/20 00:41:04;;;;;;;38.28;24.72;;;;;;;10.72;100.00;99694.45;1794725;79;21135;-72
2022/10/20 00:43:58;;;;;;;40.60;24.25;;;;;;;10.70;100.00;99689.39;1795630;79;21071;-73
2022/10/20 00:46:39;;;;;;;41.33;25.32;;;;;;;10.81;100.00;99688.32;1799663;79;21013;-72
2022/10/20 00:49:13;;;;;;;38.73;24.85;;;;;;;10.84;100.00;99687.30;1799432;79;21040;-72
2022/10/20 00:51:42;;;;;;;41.83;25.02;;;;;;;10.90;100.00;99682.27;1776071;79;21482;-72
2022/10/20 00:54:14;;;;;;;42.58;25.70;;;;;;;10.94;100.00;99680.70;1788343;79;21041;-71
2022/10/20 00:56:44;;;;;;;43.20;26.07;;;;;;;10.94;100.00;99678.59;1798071;79;21047;-72
2022/10/20 00:59:14;;;;;;;41.45;25.95;;;;;;;10.96;100.00;99682.72;1792825;79;21057;-73
2022/10/20 01:01:43;;;;;;;44.93;25.95;;;;;;;10.76;100.00;99676.62;1791401;79;21166;-73
2022/10/20 01:04:10;;;;;;;41.15;26.07;;;;;;;10.77;100.00;99673.15;1799388;79;21040;-71
2022/10/20 01:06:39;;;;;;;41.15;26.42;;;;;;;10.82;100.00;99669.83;1796527;79;21026;-73
2022/10/20 01:09:07;;;;;;;42.45;26.05;;;;;;;11.03;100.00;99669.87;1807254;79;21581;-71
2022/10/20 01:12:18;;;;;;;45.00;27.05;;;;;;;10.86;100.00;99683.36;1791690;79;21586;-72
2022/10/20 01:15:20;;;;;;;42.85;27.45;;;;;;;10.92;100.00;99690.26;1801648;79;22793;-73
2022/10/20 01:17:56;;;;;;;44.90;27.58;;;;;;;10.79;100.00;99678.57;1799565;79;21094;-72
2022/10/20 01:21:04;;;;;;;44.30;27.35;;;;;;;10.91;100.00;99677.47;1787883;79;21070;-72
2022/10/20 01:23:45;;;;;;;46.33;28.38;;;;;;;10.83;100.00;99682.63;1795797;79;21024;-72
2022/10/20 01:26:43;;;;;;;47.40;28.10;;;;;;;10.91;100.00;99695.05;1757987;79;21071;-72
2022/10/20 01:29:51;;;;;;;45.75;28.15;;;;;;;10.81;100.00;99691.36;1785244;79;21114;-72
2022/10/20 01:32:35;;;;;;;53.00;30.43;;;;;;;10.79;100.00;99684.19;1777808;81;21079;-72
2022/10/20 01:35:34;;;;;;;47.70;29.50;;;;;;;10.81;100.00;99684.92;1770314;81;21008;-72
2022/10/20 01:38:23;;;;;;;48.20;29.07;;;;;;;10.72;100.00;99675.97;1790373;79;21527;-72
2022/10/20 01:40:55;;;;;;;50.00;30.20;;;;;;;10.74;100.00;99679.75;1794640;79;21013;-72
2022/10/20 01:43:26;;;;;;;50.33;29.30;;;;;;;10.68;100.00;99677.06;1792656;79;20993;-73
2022/10/20 01:45:57;;;;;;;53.63;31.05;;;;;;;10.71;100.00;99673.04;1791182;79;21490;-73
2022/10/20 01:48:28;;;;;;;49.63;30.27;;;;;;;10.73;100.00;99671.67;1797931;79;21039;-73
2022/10/20 01:50:55;;;;;;;50.92;31.05;;;;;;;10.71;100.00;99660.64;1796156;79;20995;-71
2022/10/20 01:53:23;;;;;;;50.20;30.15;;;;;;;10.76;100.00;99667.15;1796595;79;21492;-73
2022/10/20 01:55:53;;;;;;;50.40;30.65;;;;;;;10.77;100.00;99665.43;1791652;79;21067;-72
2022/10/20 01:59:09;;;;;;;49.38;30.08;;;;;;;10.70;100.00;99662.83;1798811;79;21016;-73
2022/10/20 02:02:11;;;;;;;51.77;31.97;;;;;;;10.67;100.00;99666.88;1792561;79;21032;-72
2022/10/20 02:04:48;;;;;;;50.98;29.75;;;;;;;10.70;100.00;99665.40;1800710;79;20984;-71
2022/10/20 02:07:23;;;;;;;50.35;30.52;;;;;;;10.63;100.00;99664.94;1794859;79;21587;-73
2022/10/20 02:09:57;;;;;;;50.35;29.65;;;;;;;10.65;100.00;99673.40;1795464;79;21086;-72
2022/10/20 02:12:32;;;;;;;49.25;30.05;;;;;;;10.60;100.00;99680.11;1796042;79;21020;-72
2022/10/20 02:15:00;;;;;;;47.27;29.48;;;;;;;10.52;100.00;99673.28;1800889;79;21087;-73
2022/10/20 02:17:28;;;;;;;48.33;29.00;;;;;;;10.53;100.00;99671.53;1790306;79;20988;-72
2022/10/20 02:19:57;;;;;;;44.20;28.17;;;;;;;10.51;100.00;99681.08;1799606;79;21016;-73
2022/10/20 02:22:26;;;;;;;47.40;29.23;;;;;;;10.46;100.00;99671.03;1795828;79;21111;-72
2022/10/20 02:24:54;;;;;;;45.40;28.00;;;;;;;10.46;100.00;99671.03;1790691;79;21042;-73
2022/10/20 02:27:31;;;;;;;44.53;29.07;;;;;;;10.42;100.00;99670.40;1798278;79;21099;-72
2022/10/20 02:30:07;;;;;;;46.60;28.87;;;;;;;10.46;100.00;99664.59;1801566;79;21796;-72
2022/10/20 02:32:38;;;;;;;47.03;28.60;;;;;;;10.50;100.00;99671.69;1793334;79;21023;-73
2022/10/20 02:35:11;;;;;;;42.75;27.67;;;;;;;10.48;100.00;99667.09;1792290;79;21032;-73
2022/10/20 02:37:38;;;;;;;41.75;28.15;;;;;;;10.49;100.00;99658.01;1794579;79;22003;-72
2022/10/20 02:40:07;;;;;;;44.00;28.67;;;;;;;10.54;100.00;99666.73;1797852;79;21028;-73
2022/10/20 02:42:34;;;;;;;47.00;29.65;;;;;;;10.51;100.00;99663.07;1788849;79;21510;-73
2022/10/20 02:45:02;;;;;;;42.73;28.67;;;;;;;10.49;100.00;99663.62;1797664;79;21036;-72
2022/10/20 02:47:29;;;;;;;43.42;27.62;;;;;;;10.51;100.00;99662.61;1792582;79;21008;-73
2022/10/20 02:49:56;;;;;;;43.52;27.32;;;;;;;10.53;100.00;99665.92;1802092;79;21086;-72
2022/10/20 02:52:23;;;;;;;44.25;27.30;;;;;;;10.41;100.00;99662.30;1798601;79;21134;-73
2022/10/20 02:54:50;;;;;;;44.55;27.32;;;;;;;10.32;100.00;99655.12;1794449;79;20994;-73
2022/10/20 02:57:17;;;;;;;42.85;27.70;;;;;;;10.42;100.00;99649.81;1787451;79;21036;-72
2022/10/20 02:59:44;;;;;;;42.85;27.70;;;;;;;10.46;100.00;99642.73;1789029;79;21048;-72
2022/10/20 03:02:11;;;;;;;42.83;27.95;;;;;;;10.39;100.00;99653.84;1799179;79;21099;-72
2022/10/20 03:04:38;;;;;;;40.67;26.25;;;;;;;10.40;100.00;99665.80;1790495;79;21097;-72
2022/10/20 03:07:07;;;;;;;41.33;26.97;;;;;;;10.36;100.00;99655.31;1800052;79;21512;-73
2022/10/20 03:09:35;;;;;;;40.40;26.65;;;;;;;10.38;100.00;99656.05;1798786;79;21103;-72
2022/10/20 03:12:03;;;;;;;43.20;27.82;;;;;;;10.37;100.00;99655.67;1793656;79;21047;-72
2022/10/20 03:14:30;;;;;;;58.52;37.42;;;;;;;10.35;100.00;99654.92;1800122;79;21127;-73
2022/10/20 03:16:58;;;;;;;65.87;42.25;;;;;;;10.28;100.00;99655.33;1796181;79;21095;-73
2022/10/20 03:19:26;;;;;;;58.08;36.80;;;;;;;10.19;100.00;99653.64;1800834;79;21047;-73
2022/10/20 03:21:53;;;;;;;64.97;38.63;;;;;;;10.24;100.00;99650.83;1800591;80;21067;-73
2022/10/20 03:24:20;;;;;;;50.92;31.77;;;;;;;10.22;100.00;99652.20;1798194;79;21012;-72
2022/10/20 03:26:47;;;;;;;47.38;29.20;;;;;;;10.20;100.00;99654.03;1795068;79;21589;-72
2022/10/20 03:29:15;;;;;;;41.75;27.73;;;;;;;10.13;100.00;99653.16;1788609;79;21014;-72
2022/10/20 03:31:42;;;;;;;44.77;27.25;;;;;;;10.08;100.00;99649.58;1793298;79;21014;-72
2022/10/20 03:34:11;;;;;;;42.65;27.07;;;;;;;10.12;100.00;99639.48;1783776;79;21031;-73
2022/10/20 03:36:40;;;;;;;43.55;26.93;;;;;;;10.01;100.00;99643.10;1795883;79;21130;-73
2022/10/20 03:39:07;;;;;;;42.15;26.95;;;;;;;10.07;100.00;99640.19;1790068;79;21089;-73
2022/10/20 03:41:36;;;;;;;43.40;27.42;;;;;;;10.05;100.00;99640.73;1800012;79;21004;-73
2022/10/20 03:44:03;;;;;;;43.08;27.13;;;;;;;9.88;100.00;99635.25;1797795;79;21042;-73
2022/10/20 03:46:30;;;;;;;45.48;27.07;;;;;;;9.89;100.00;99634.32;1799469;79;21036;-73
2022/10/20 03:48:59;;;;;;;43.42;26.52;;;;;;;9.88;100.00;99631.86;1800733;79;21098;-73
2022/10/20 03:51:26;;;;;;;40.20;26.05;;;;;;;9.84;100.00;99631.19;1796128;79;21074;-72
2022/10/20 03:53:54;;;;;;;40.52;25.32;;;;;;;9.87;100.00;99628.90;1796079;79;21160;-73
2022/10/20 03:56:22;;;;;;;40.70;25.88;;;;;;;9.86;100.00;99620.37;1798664;79;21070;-73
2022/10/20 03:58:49;;;;;;;41.28;25.10;;;;;;;9.90;100.00;99615.89;1800898;79;21122;-72
2022/10/20 04:01:20;;;;;;;39.45;24.23;;;;;;;9.86;100.00;99614.41;1800111;79;21042;-73
2022/10/20 04:03:48;;;;;;;46.08;25.43;;;;;;;9.85;100.00;99612.27;1764883;79;21029;-73
2022/10/20 04:06:15;;;;;;;39.73;24.60;;;;;;;9.86;100.00;99607.98;1795260;79;21024;-74
2022/10/20 04:08:44;;;;;;;35.83;22.93;;;;;;;9.82;100.00;99605.56;1794754;79;21079;-74
2022/10/20 04:11:11;;;;;;;39.88;24.02;;;;;;;9.83;100.00;99602.09;1802402;79;21063;-74
2022/10/20 04:13:38;;;;;;;36.63;23.27;;;;;;;9.82;100.00;99599.14;1763847;80;21099;-73
2022/10/20 04:16:07;;;;;;;35.88;23.80;;;;;;;9.81;100.00;99596.21;1800986;79;21071;-73
2022/10/20 04:18:34;;;;;;;33.73;22.58;;;;;;;9.82;100.00;99597.03;1800035;79;21004;-74
2022/10/20 04:21:03;;;;;;;38.25;23.73;;;;;;;9.81;100.00;99594.08;1788370;79;21020;-73
2022/10/20 04:23:31;;;;;;;36.45;22.48;;;;;;;9.81;100.00;99595.36;1789126;80;21006;-73
2022/10/20 04:25:58;;;;;;;35.68;22.48;;;;;;;9.80;100.00;99595.83;1792361;79;21067;-73
2022/10/20 04:28:24;;;;;;;35.60;22.85;;;;;;;9.81;100.00;99592.36;1800152;79;21063;-73
2022/10/20 04:30:52;;;;;;;34.08;22.50;;;;;;;9.84;100.00;99593.92;1798010;79;21003;-73
2022/10/20 04:33:19;;;;;;;35.00;23.32;;;;;;;9.81;100.00;99603.07;1791231;79;21018;-73
2022/10/20 04:35:46;;;;;;;37.98;23.27;;;;;;;9.77;100.00;99608.86;1792845;79;21106;-73
2022/10/20 04:38:13;;;;;;;36.88;21.33;;;;;;;9.75;100.00;99614.98;1800312;79;21571;-73
2022/10/20 04:40:41;;;;;;;35.13;21.30;;;;;;;9.74;100.00;99621.05;1802059;79;21071;-73
2022/10/20 04:43:08;;;;;;;35.65;22.45;;;;;;;9.79;100.00;99618.60;1799826;79;21036;-72
2022/10/20 04:45:35;;;;;;;35.17;22.07;;;;;;;9.77;100.00;99619.14;1802257;79;21000;-73
2022/10/20 04:48:05;;;;;;;30.37;20.23;;;;;;;9.75;100.00;99621.40;1797969;79;21093;-73
2022/10/20 04:50:32;;;;;;;34.83;21.95;;;;;;;9.77;100.00;99618.29;1791525;79;21062;-73
2022/10/20 04:53:03;;;;;;;34.25;20.92;;;;;;;9.81;100.00;99624.48;1791135;79;21073;-74
2022/10/20 04:55:31;;;;;;;33.92;20.97;;;;;;;9.77;100.00;99622.14;1797215;79;21011;-74
2022/10/20 04:57:58;;;;;;;35.28;20.77;;;;;;;9.80;100.00;99629.70;1797026;79;21046;-74
2022/10/20 05:00:25;;;;;;;30.97;20.23;;;;;;;9.85;100.00;99628.98;1796336;79;21075;-73
2022/10/20 05:02:54;;;;;;;32.25;21.17;;;;;;;9.86;100.00;99623.41;1787580;80;21043;-73
2022/10/20 05:05:21;;;;;;;33.58;20.08;;;;;;;9.96;100.00;99632.27;1799638;79;21582;-72
2022/10/20 05:07:48;;;;;;;31.65;19.52;;;;;;;10.05;100.00;99627.87;1791720;79;21038;-73
2022/10/20 05:10:15;;;;;;;30.30;19.70;;;;;;;10.02;100.00;99633.20;1788532;80;21022;-74
2022/10/20 05:12:42;;;;;;;27.80;19.95;;;;;;;10.08;100.00;99638.00;1795656;79;21016;-73
2022/10/20 05:15:09;;;;;;;27.62;18.87;;;;;;;10.19;100.00;99630.95;1794753;79;21488;-74
2022/10/20 05:17:38;;;;;;;31.33;19.32;;;;;;;10.09;100.00;99635.78;1797818;79;21020;-73
2022/10/20 05:20:06;;;;;;;26.27;18.05;;;;;;;10.01;100.00;99643.10;1792273;79;21020;-73
2022/10/20 05:22:33;;;;;;;25.80;17.32;;;;;;;10.01;100.00;99648.24;1785538;79;21056;-73
2022/10/20 05:25:01;;;;;;;27.73;17.17;;;;;;;10.05;100.00;99654.88;1783023;79;21070;-74
2022/10/20 05:27:28;;;;;;;28.87;17.82;;;;;;;10.00;100.00;99659.45;1795214;78;21032;-74
2022/10/20 05:29:55;;;;;;;26.17;17.57;;;;;;;10.09;100.00;99653.78;1776442;79;21503;-73
2022/10/20 05:32:22;;;;;;;25.88;17.00;;;;;;;10.12;100.00;99657.48;1778907;79;21032;-74
2022/10/20 05:34:50;;;;;;;24.95;16.85;;;;;;;10.10;100.00;99649.50;1811940;78;21015;-73
2022/10/20 05:37:17;;;;;;;26.42;17.10;;;;;;;10.05;100.00;99656.63;1788677;79;21004;-74
2022/10/20 05:39:45;;;;;;;26.60;17.95;;;;;;;10.12;100.00;99661.81;1786714;80;21050;-74
2022/10/20 05:42:12;;;;;;;26.68;17.60;;;;;;;10.20;100.00;99666.07;1782506;80;21015;-73
2022/10/20 05:44:39;;;;;;;27.50;16.65;;;;;;;10.13;100.00;99669.41;1783634;80;21024;-75
2022/10/20 05:47:07;;;;;;;23.10;15.93;;;;;;;10.17;100.00;99670.91;1782670;80;22166;-74
2022/10/20 05:49:34;;;;;;;25.12;15.88;;;;;;;10.14;100.00;99674.13;1785979;80;21082;-74
2022/10/20 05:52:02;;;;;;;21.93;14.87;;;;;;;10.13;100.00;99680.17;1785299;80;21052;-75
2022/10/20 05:54:29;;;;;;;24.35;15.40;;;;;;;10.13;100.00;99682.73;1787363;80;21090;-75
2022/10/20 05:56:56;;;;;;;23.65;16.40;;;;;;;10.09;100.00;99685.93;1786871;80;21087;-75
2022/10/20 05:59:23;;;;;;;24.95;16.97;;;;;;;10.05;100.00;99687.02;1789054;79;22172;-76
2022/10/20 06:01:51;;;;;;;26.10;16.73;;;;;;;10.01;100.00;99687.63;1782542;79;21105;-75
2022/10/20 06:04:22;;;;;;;20.05;13.98;;;;;;;9.99;100.00;99695.06;1785132;80;21000;-75
2022/10/20 06:06:51;;;;;;;21.80;14.87;;;;;;;9.95;100.00;99698.25;1787084;79;21026;-73
2022/10/20 06:09:20;;;;;;;21.70;15.05;;;;;;;9.92;100.00;99704.05;1788640;79;21062;-73
2022/10/20 06:11:49;;;;;;;20.43;14.73;;;;;;;9.92;100.00;99704.05;1782354;80;21098;-71
2022/10/20 06:14:16;;;;;;;18.40;11.57;;;;;;;9.94;100.00;99707.36;1783913;79;21062;-72
2022/10/20 06:16:44;;;;;;;16.52;10.20;;;;;;;9.87;100.00;99717.59;1789650;80;21050;-74
2022/10/20 06:19:12;;;;;;;5.62;4.50;;;;;;;9.66;100.00;99713.14;1786825;80;21063;-74
2022/10/20 06:21:41;;;;;;;2.85;2.30;;;;;;;9.40;100.00;99723.86;1782758;79;21499;-74
2022/10/20 06:24:10;;;;;;;2.85;1.75;;;;;;;9.23;100.00;99738.86;1783713;80;21050;-75
2022/10/20 06:26:39;;;;;;;1.75;1.60;;;;;;;8.96;100.00;99743.66;1777500;80;21038;-74
2022/10/20 06:29:10;;;;;;;1.95;1.50;;;;;;;8.87;100.00;99766.38;1784717;79;20984;-73
2022/10/20 06:31:44;;;;;;;1.70;1.10;;;;;;;8.80;100.00;99764.56;1782782;80;21058;-74
2022/10/20 06:34:19;;;;;;;1.30;1.20;;;;;;;8.61;100.00;99773.13;1783697;80;21034;-74
2022/10/20 06:36:48;;;;;;;2.12;1.32;;;;;;;8.66;100.00;99764.37;1783598;80;21031;-75
2022/10/20 06:39:21;;;;;;;1.57;1.22;;;;;;;8.58;100.00;99782.72;1784956;79;21065;-74
2022/10/20 06:41:50;;;;;;;1.45;1.25;;;;;;;8.55;100.00;99765.72;1783758;79;21140;-76
2022/10/20 06:44:22;;;;;;;1.32;1.20;;;;;;;8.48;100.00;99784.89;1763291;80;21515;-74
2022/10/20 06:46:55;;;;;;;1.30;1.00;;;;;;;8.38;100.00;99786.19;1784631;79;21564;-76
2022/10/20 06:49:20;;;;;;;2.12;1.20;;;;;;;8.31;100.00;99806.59;1785290;79;21036;-75
2022/10/20 06:51:48;;;;;;;1.75;1.40;;;;;;;8.25;100.00;99791.03;1785904;79;21531;-74
2022/10/20 06:54:16;;;;;;;4.05;1.70;;;;;;;8.10;100.00;99795.59;1785284;80;21478;-74
2022/10/20 06:56:43;;;;;;;2.40;1.60;;;;;;;7.98;100.00;99793.13;1781519;80;21056;-75
2022/10/20 06:59:11;;;;;;;2.33;1.42;;;;;;;7.77;100.00;99799.59;1790667;80;21062;-73
2022/10/20 07:01:41;;;;;;;2.27;1.60;;;;;;;7.78;100.00;99793.55;1783210;79;21095;-72
2022/10/20 07:04:14;;;;;;;2.47;1.30;;;;;;;7.79;100.00;99782.42;1784809;80;21003;-72
2022/10/20 07:06:44;;;;;;;3.90;2.12;;;;;;;7.73;100.00;99783.97;1783621;80;21027;-72
2022/10/20 07:09:18;;;;;;;2.72;2.20;;;;;;;7.76;100.00;99788.13;1786662;78;21073;-72
2022/10/20 07:11:45;;;;;;;2.90;2.10;;;;;;;7.74;100.00;99785.62;1726129;81;21091;-72
2022/10/20 07:14:14;;;;;;;3.75;2.08;;;;;;;7.70;100.00;99786.65;1780395;80;21045;-72
2022/10/20 07:16:43;;;;;;;3.02;1.90;;;;;;;7.74;100.00;99786.90;1778083;80;21133;-72
2022/10/20 07:19:10;;;;;;;3.20;2.02;;;;;;;7.77;100.00;99782.94;1777787;80;21496;-71
2022/10/20 07:21:38;;;;;;;5.20;2.27;;;;;;;7.73;100.00;99782.69;1773138;80;21615;-71
2022/10/20 07:24:12;;;;;;;2.70;1.90;;;;;;;7.76;100.00;99779.98;1747446;80;21014;-72
2022/10/20 07:26:42;;;;;;;3.90;2.80;;;;;;;7.67;100.00;99775.73;1752155;80;21107;-72
2022/10/20 07:29:10;;;;;;;6.25;2.40;;;;;;;7.76;100.00;99772.29;1773200;80;21028;-72
2022/10/20 07:31:44;;;;;;;4.25;2.87;;;;;;;7.82;100.00;99778.88;1770596;80;21052;-71
2022/10/20 07:34:15;;;;;;;2.72;2.15;;;;;;;7.83;100.00;99786.51;1781677;80;21029;-72
2022/10/20 07:36:44;;;;;;;2.62;1.95;;;;;;;7.73;100.00;99781.41;1780655;80;21025;-71
2022/10/20 07:39:12;;;;;;;3.55;2.15;;;;;;;7.73;100.00;99782.69;1782922;80;21009;-72
2022/10/20 07:41:42;;;;;;;2.98;2.08;;;;;;;7.80;100.00;99789.64;1763370;80;21044;-71
2022/10/20 07:44:09;;;;;;;1.45;1.35;;;;;;;7.83;100.00;99788.25;1757923;80;21109;-72
2022/10/20 07:46:36;;;;;;;2.30;1.72;;;;;;;7.73;100.00;99804.47;1763423;80;21433;-71
2022/10/20 07:49:03;;;;;;;2.95;2.00;;;;;;;7.92;100.00;99795.51;1763301;80;21541;-71
2022/10/20 07:51:31;;;;;;;4.20;1.92;;;;;;;8.16;100.00;99797.88;1756294;80;21042;-71
2022/10/20 07:54:10;;;;;;;4.45;2.45;;;;;;;8.04;100.00;99805.67;1766107;79;21106;-71
2022/10/20 07:56:38;;;;;;;3.30;2.02;;;;;;;8.12;100.00;99798.46;1743936;80;21031;-72
2022/10/20 07:59:07;;;;;;;3.37;1.60;;;;;;;8.17;100.00;99803.37;1762000;80;21019;-71
2022/10/20 08:01:34;;;;;;;1.80;1.50;;;;;;;8.09;100.00;99811.44;1767012;79;21216;-72
2022/10/20 08:04:01;;;;;;;1.32;1.22;;;;;;;8.07;100.00;99813.23;1752773;80;21065;-72
2022/10/20 08:06:29;;;;;;;1.92;1.25;;;;;;;7.85;100.00;99827.88;1774717;80;21037;-72
2022/10/20 08:08:58;;;;;;;2.35;1.27;;;;;;;7.60;100.00;99828.94;1759198;79;21045;-72
2022/10/20 08:11:26;;;;;;;1.25;1.02;;;;;;;7.54;100.00;99828.77;1767629;80;21060;-72
2022/10/20 08:13:53;;;;;;;3.17;1.40;;;;;;;7.55;100.00;99824.47;1767013;80;21083;-72
2022/10/20 08:16:20;;;;;;;2.85;1.57;;;;;;;7.69;100.00;99837.98;1749266;80;21041;-72
2022/10/20 08:18:47;;;;;;;2.80;1.60;;;;;;;7.79;100.00;99834.94;1764419;80;21054;-72
2022/10/20 08:21:18;;;;;;;3.85;2.00;;;;;;;7.72;100.00;99835.27;1763889;80;21452;-72
2022/10/20 08:23:48;;;;;;;2.90;1.82;;;;;;;7.78;100.00;99842.23;1746348;80;21018;-72
2022/10/20 08:26:23;;;;;;;2.80;1.87;;;;;;;7.69;100.00;99850.78;1784525;80;21064;-72
2022/10/20 08:28:52;;;;;;;2.98;1.80;;;;;;;7.51;100.00;99866.02;1772225;80;21078;-72
2022/10/20 08:31:22;;;;;;;2.77;1.75;;;;;;;7.51;100.00;99858.34;1776120;80;21619;-72
2022/10/20 08:33:50;;;;;;;2.67;1.47;;;;;;;7.37;100.00;99871.70;1770686;80;21556;-72
2022/10/20 08:36:17;;;;;;;3.10;1.77;;;;;;;7.40;100.00;99860.50;1761004;80;21132;-72
2022/10/20 08:38:44;;;;;;;2.30;1.60;;;;;;;7.51;100.00;99860.07;1784249;80;21053;-72
2022/10/20 08:41:27;;;;;;;2.40;1.22;;;;;;;7.40;100.00;99873.30;1771419;80;21506;-71
2022/10/20 08:43:57;;;;;;;1.70;1.37;;;;;;;7.36;100.00;99864.94;1752108;80;21574;-71
2022/10/20 08:46:34;;;;;;;1.25;1.10;;;;;;;7.36;100.00;99868.78;1752053;80;21486;-72
2022/10/20 08:49:05;;;;;;;1.82;1.10;;;;;;;7.30;100.00;99881.83;1748912;80;21061;-72
2022/10/20 08:51:38;;;;;;;1.80;1.20;;;;;;;7.33;100.00;99888.09;1749016;80;20991;-72
2022/10/20 08:54:12;;;;;;;2.33;1.12;;;;;;;7.37;100.00;99883.23;1763723;80;21034;-71
2022/10/20 08:56:39;;;;;;;1.62;1.00;;;;;;;7.25;100.00;99879.06;1780791;80;21041;-71
2022/10/20 08:59:30;;;;;;;2.08;1.00;;;;;;;7.35;100.00;99902.12;1764904;80;21035;-71
2022/10/20 09:01:57;;;;;;;1.40;0.98;;;;;;;7.18;100.00;99892.11;1759245;80;21129;-71
2022/10/20 09:04:36;;;;;;;1.42;0.70;;;;;;;7.12;100.00;99892.81;1757413;80;21596;-72
2022/10/20 09:07:15;;;;;;;1.15;1.05;;;;;;;6.93;100.00;99911.88;1758786;80;21037;-72
2022/10/20 09:09:42;;;;;;;1.15;1.02;;;;;;;7.16;100.00;99900.30;1763721;80;21057;-72
2022/10/20 09:12:13;;;;;;;0.80;0.80;;;;;;;7.26;100.00;99907.17;1775338;80;21068;-71
2022/10/20 09:14:41;;;;;;;1.22;1.00;;;;;;;6.97;100.00;99902.73;1763685;80;21084;-72
2022/10/20 09:17:15;;;;;;;2.02;1.22;;;;;;;7.08;100.00;99905.34;1784255;80;21088;-71
2022/10/20 09:19:47;;;;;;;1.12;1.00;;;;;;;7.23;100.00;99896.58;1764796;80;21005;-72
2022/10/20 09:22:18;;;;;;;1.50;1.10;;;;;;;7.24;100.00;99903.84;1757841;80;21015;-72
2022/10/20 09:24:46;;;;;;;1.40;1.07;;;;;;;7.27;100.00;99894.73;1778139;80;21068;-72
2022/10/20 09:27:30;;;;;;;0.90;0.90;;;;;;;7.32;100.00;99894.13;1744580;80;21062;-71
2022/10/20 09:29:57;;;;;;;2.25;0.90;;;;;;;7.19;100.00;99900.61;1777278;80;21025;-72
2022/10/20 09:32:35;;;;;;;1.02;0.93;;;;;;;7.31;100.00;99904.41;1777428;80;21505;-72
2022/10/20 09:35:26;;;;;;;1.37;1.00;;;;;;;7.38;100.00;99909.23;1772471;80;21572;-71
2022/10/20 09:38:04;;;;;;;2.80;1.20;;;;;;;7.44;100.00;99926.09;1770829;80;21560;-71
2022/10/20 09:40:31;;;;;;;2.20;1.22;;;;;;;7.40;100.00;99910.00;1782346;80;21052;-71
2022/10/20 09:43:04;;;;;;;1.85;1.25;;;;;;;7.49;100.00;99915.65;1748879;80;21533;-71
2022/10/20 09:45:34;;;;;;;2.12;1.50;;;;;;;7.27;100.00;99910.09;1756718;80;21500;-72
2022/10/20 09:48:06;;;;;;;1.45;1.22;;;;;;;7.35;100.00;99916.20;1776086;80;21805;-72
2022/10/20 09:50:39;;;;;;;1.57;1.25;;;;;;;7.22;100.00;99925.65;1777242;80;21060;-71
2022/10/20 09:53:12;;;;;;;2.05;1.40;;;;;;;7.27;100.00;99931.03;1772639;80;21043;-72
2022/10/20 09:55:44;;;;;;;1.90;1.10;;;;;;;7.22;100.00;99915.86;1754825;80;21072;-71
2022/10/20 09:58:30;;;;;;;1.70;1.40;;;;;;;7.20;100.00;99923.59;1769985;80;21048;-71
2022/10/20 10:01:13;;;;;;;2.52;1.10;;;;;;;7.37;100.00;99927.21;1750802;80;21069;-72
2022/10/20 10:03:45;;;;;;;1.72;1.22;;;;;;;7.35;100.00;99940.06;1744604;80;21003;-70
2022/10/20 10:06:41;;;;;;;1.40;1.30;;;;;;;7.26;100.00;99939.59;1764919;80;21145;-71
2022/10/20 10:09:36;;;;;;;1.25;1.10;;;;;;;7.20;100.00;99941.52;1760074;80;21521;-72
2022/10/20 10:12:14;;;;;;;2.47;1.10;;;;;;;7.27;100.00;99963.86;1758506;80;21072;-71
2022/10/20 10:15:02;;;;;;;1.12;1.02;;;;;;;6.96;100.00;99979.58;1767248;80;21034;-72
2022/10/20 10:17:43;;;;;;;1.20;1.10;;;;;;;6.94;100.00;99990.31;1766904;80;21029;-72
2022/10/20 10:20:18;;;;;;;1.10;1.00;;;;;;;6.95;100.00;99997.08;1785090;80;21009;-71
2022/10/20 10:22:45;;;;;;;2.50;1.40;;;;;;;6.75;100.00;100008.05;1779674;80;21021;-71
2022/10/20 10:25:25;;;;;;;2.27;1.70;;;;;;;6.82;100.00;99994.98;1746902;80;21078;-72
2022/10/20 10:28:09;;;;;;;2.62;1.42;;;;;;;7.00;100.00;99996.02;1757392;80;21038;-71
2022/10/20 10:30:38;;;;;;;3.02;1.37;;;;;;;6.85;100.00;100018.33;1766997;79;21082;-72
2022/10/20 10:33:26;;;;;;;2.08;1.20;;;;;;;6.91;100.00;100001.47;1757575;80;21107;-72
2022/10/20 10:35:54;;;;;;;1.72;1.37;;;;;;;6.84;100.00;100019.69;1752099;80;21034;-72
2022/10/20 10:38:21;;;;;;;1.70;1.20;;;;;;;6.85;100.00;100018.33;1777236;80;21609;-72
2022/10/20 10:41:06;;;;;;;1.57;1.47;;;;;;;6.88;100.00;100019.52;1768303;80;20998;-71
2022/10/20 10:44:15;;;;;;;1.65;1.40;;;;;;;6.88;100.00;100023.80;1762626;80;21047;-72
2022/10/20 10:46:59;;;;;;;1.57;1.20;;;;;;;6.67;100.00;100021.55;1762792;80;21135;-72
2022/10/20 10:49:53;;;;;;;2.00;1.30;;;;;;;6.69;100.00;100027.45;1773908;80;21076;-72
2022/10/20 10:52:51;;;;;;;1.50;1.20;;;;;;;6.51;100.00;100037.88;1771128;80;21073;-73
2022/10/20 10:55:39;;;;;;;1.35;1.17;;;;;;;6.45;100.00;100041.92;1744530;80;21536;-73
2022/10/20 10:58:34;;;;;;;3.30;1.65;;;;;;;6.37;100.00;100053.27;1750659;80;21034;-73
2022/10/20 11:01:15;;;;;;;3.12;1.80;;;;;;;6.50;100.00;100041.34;1756562;79;21159;-73
2022/10/20 11:04:07;;;;;;;1.85;1.50;;;;;;;6.52;100.00;100057.01;1773030;80;21003;-72
2022/10/20 11:06:43;;;;;;;1.72;1.25;;;;;;;6.40;100.00;100055.70;1755172;80;21034;-72
2022/10/20 11:09:29;;;;;;;1.40;1.15;;;;;;;6.30;100.00;100049.69;1783408;80;21747;-72
2022/10/20 11:12:40;;;;;;;2.00;1.75;;;;;;;6.23;100.00;100047.79;1775450;80;21116;-73
2022/10/20 11:15:32;;;;;;;2.95;1.45;;;;;;;6.15;100.00;100048.04;1775013;80;21143;-73
2022/10/20 11:18:26;;;;;;;3.67;1.60;;;;;;;6.02;100.00;100050.59;1754840;80;21072;-72
2022/10/20 11:21:03;;;;;;;2.17;1.47;;;;;;;6.17;100.00;100044.16;1776293;80;21557;-72
2022/10/20 11:23:53;;;;;;;2.98;2.05;;;;;;;6.17;100.00;100039.05;1719547;81;21553;-72
2022/10/20 11:26:40;;;;;;;2.37;1.72;;;;;;;6.26;100.00;100041.73;1760915;80;21027;-73
2022/10/20 11:29:42;;;;;;;2.30;1.32;;;;;;;6.30;100.00;100042.84;1764268;80;21092;-72
2022/10/20 11:32:31;;;;;;;1.57;1.27;;;;;;;6.07;100.00;100065.80;1784630;80;21048;-72
2022/10/20 11:35:47;;;;;;;1.95;1.25;;;;;;;6.13;100.00;100044.70;1752697;80;21578;-72
2022/10/20 11:38:20;;;;;;;1.82;1.35;;;;;;;6.03;100.00;100044.61;1750344;80;21030;-72
2022/10/20 11:41:04;;;;;;;1.22;1.12;;;;;;;6.16;100.00;100047.59;1784222;80;21013;-72
2022/10/20 11:43:44;;;;;;;1.37;1.00;;;;;;;5.75;100.00;100056.95;1764560;80;21093;-72
2022/10/20 11:46:22;;;;;;;0.98;0.88;;;;;;;5.40;100.00;100077.19;1744403;80;21073;-72